sensor_id;sensor_type;location;lat;lon;timestamp;temperature;humidity
75451;DHT22;64029;48.244;9.188;2023-02-11T00:02:20;-5.20;73.50
75451;DHT22;64029;48.244;9.188;2023-02-11T00:04:47;-5.10;73.70
75451;DHT22;64029;48.244;9.188;2023-02-11T00:07:14;-5.20;73.40
75451;DHT22;64029;48.244;9.188;2023-02-11T00:09:42;-5.20;73.40
75451;DHT22;64029;48.244;9.188;2023-02-11T00:12:09;-5.20;73.40
75451;DHT22;64029;48.244;9.188;2023-02-11T00:14:36;-5.30;73.40
75451;DHT22;64029;48.244;9.188;2023-02-11T00:17:03;-5.30;73.60
75451;DHT22;64029;48.244;9.188;2023-02-11T00:19:30;-5.30;73.80
75451;DHT22;64029;48.244;9.188;2023-02-11T00:21:56;-5.30;73.50
75451;DHT22;64029;48.244;9.188;2023-02-11T00:24:23;-5.30;73.40
75451;DHT22;64029;48.244;9.188;2023-02-11T00:26:51;-5.40;73.30
75451;DHT22;64029;48.244;9.188;2023-02-11T00:29:18;-5.40;73.40
75451;DHT22;64029;48.244;9.188;2023-02-11T00:31:45;-5.40;73.40
75451;DHT22;64029;48.244;9.188;2023-02-11T00:34:12;-5.40;73.30
75451;DHT22;64029;48.244;9.188;2023-02-11T00:36:39;-5.50;73.20
75451;DHT22;64029;48.244;9.188;2023-02-11T00:39:06;-5.50;73.20
75451;DHT22;64029;48.244;9.188;2023-02-11T00:41:33;-5.50;73.60
75451;DHT22;64029;48.244;9.188;2023-02-11T00:44:01;-5.40;73.60
75451;DHT22;64029;48.244;9.188;2023-02-11T00:46:29;-5.50;73.40
75451;DHT22;64029;48.244;9.188;2023-02-11T00:48:55;-5.50;73.40
75451;DHT22;64029;48.244;9.188;2023-02-11T00:51:23;-5.50;73.40
75451;DHT22;64029;48.244;9.188;2023-02-11T00:53:50;-5.50;73.50
75451;DHT22;64029;48.244;9.188;2023-02-11T00:56:17;-5.50;73.70
75451;DHT22;64029;48.244;9.188;2023-02-11T00:58:43;-5.60;73.80
75451;DHT22;64029;48.244;9.188;2023-02-11T01:01:12;-5.60;73.80
75451;DHT22;64029;48.244;9.188;2023-02-11T01:03:39;-5.60;73.80
75451;DHT22;64029;48.244;9.188;2023-02-11T01:06:07;-5.60;74.00
75451;DHT22;64029;48.244;9.188;2023-02-11T01:08:35;-5.60;74.00
75451;DHT22;64029;48.244;9.188;2023-02-11T01:11:04;-5.60;73.90
75451;DHT22;64029;48.244;9.188;2023-02-11T01:13:33;-5.60;73.90
75451;DHT22;64029;48.244;9.188;2023-02-11T01:16:00;-5.60;74.00
75451;DHT22;64029;48.244;9.188;2023-02-11T01:18:28;-5.70;73.60
75451;DHT22;64029;48.244;9.188;2023-02-11T01:20:55;-5.70;73.70
75451;DHT22;64029;48.244;9.188;2023-02-11T01:23:22;-5.70;73.70
75451;DHT22;64029;48.244;9.188;2023-02-11T01:25:49;-5.70;73.50
75451;DHT22;64029;48.244;9.188;2023-02-11T01:28:16;-5.80;73.60
75451;DHT22;64029;48.244;9.188;2023-02-11T01:30:43;-5.80;73.60
75451;DHT22;64029;48.244;9.188;2023-02-11T01:33:10;-5.80;73.70
75451;DHT22;64029;48.244;9.188;2023-02-11T01:35:39;-5.80;73.50
75451;DHT22;64029;48.244;9.188;2023-02-11T01:38:07;-5.80;73.40
75451;DHT22;64029;48.244;9.188;2023-02-11T01:40:39;-5.90;73.30
75451;DHT22;64029;48.244;9.188;2023-02-11T01:43:06;-5.90;73.40
75451;DHT22;64029;48.244;9.188;2023-02-11T01:46:02;-5.90;73.50
75451;DHT22;64029;48.244;9.188;2023-02-11T01:48:32;-5.90;73.50
75451;DHT22;64029;48.244;9.188;2023-02-11T01:51:04;-5.80;73.70
75451;DHT22;64029;48.244;9.188;2023-02-11T01:53:33;-5.90;73.70
75451;DHT22;64029;48.244;9.188;2023-02-11T01:56:19;-5.80;73.80
75451;DHT22;64029;48.244;9.188;2023-02-11T01:59:08;-5.90;73.70
75451;DHT22;64029;48.244;9.188;2023-02-11T02:01:36;-5.90;73.70
75451;DHT22;64029;48.244;9.188;2023-02-11T02:04:05;-6.00;73.60
75451;DHT22;64029;48.244;9.188;2023-02-11T02:06:39;-5.90;73.90
75451;DHT22;64029;48.244;9.188;2023-02-11T02:09:10;-6.00;73.70
75451;DHT22;64029;48.244;9.188;2023-02-11T02:11:42;-6.00;73.60
75451;DHT22;64029;48.244;9.188;2023-02-11T02:14:09;-6.00;73.60
75451;DHT22;64029;48.244;9.188;2023-02-11T02:16:36;-6.10;74.10
75451;DHT22;64029;48.244;9.188;2023-02-11T02:19:23;-6.10;73.90
75451;DHT22;64029;48.244;9.188;2023-02-11T02:22:28;-6.10;73.80
75451;DHT22;64029;48.244;9.188;2023-02-11T02:27:56;-6.10;74.10
75451;DHT22;64029;48.244;9.188;2023-02-11T02:30:52;-6.20;73.90
75451;DHT22;64029;48.244;9.188;2023-02-11T02:33:31;-6.20;73.90
75451;DHT22;64029;48.244;9.188;2023-02-11T02:36:06;-6.20;73.90
75451;DHT22;64029;48.244;9.188;2023-02-11T02:38:38;-6.20;73.90
75451;DHT22;64029;48.244;9.188;2023-02-11T02:41:07;-6.20;73.90
75451;DHT22;64029;48.244;9.188;2023-02-11T02:43:37;-6.20;74.00
75451;DHT22;64029;48.244;9.188;2023-02-11T02:46:13;-6.30;73.80
75451;DHT22;64029;48.244;9.188;2023-02-11T02:48:43;-6.30;73.90
75451;DHT22;64029;48.244;9.188;2023-02-11T02:51:24;-6.30;73.90
75451;DHT22;64029;48.244;9.188;2023-02-11T02:54:01;-6.30;73.80
75451;DHT22;64029;48.244;9.188;2023-02-11T02:56:36;-6.30;73.90
75451;DHT22;64029;48.244;9.188;2023-02-11T02:59:24;-6.30;73.80
75451;DHT22;64029;48.244;9.188;2023-02-11T03:01:58;-6.40;73.50
75451;DHT22;64029;48.244;9.188;2023-02-11T03:04:35;-6.40;73.50
75451;DHT22;64029;48.244;9.188;2023-02-11T03:07:07;-6.40;73.70
75451;DHT22;64029;48.244;9.188;2023-02-11T03:09:39;-6.40;73.80
75451;DHT22;64029;48.244;9.188;2023-02-11T03:12:09;-6.40;73.90
75451;DHT22;64029;48.244;9.188;2023-02-11T03:14:38;-6.40;73.90
75451;DHT22;64029;48.244;9.188;2023-02-11T03:17:07;-6.40;73.80
75451;DHT22;64029;48.244;9.188;2023-02-11T03:19:38;-6.40;74.40
75451;DHT22;64029;48.244;9.188;2023-02-11T03:22:11;-6.40;73.80
75451;DHT22;64029;48.244;9.188;2023-02-11T03:24:40;-6.40;73.80
75451;DHT22;64029;48.244;9.188;2023-02-11T03:27:11;-6.40;73.70
75451;DHT22;64029;48.244;9.188;2023-02-11T03:29:44;-6.40;73.80
75451;DHT22;64029;48.244;9.188;2023-02-11T03:32:19;-6.40;73.80
75451;DHT22;64029;48.244;9.188;2023-02-11T03:34:54;-6.40;73.80
75451;DHT22;64029;48.244;9.188;2023-02-11T03:37:26;-6.40;73.80
75451;DHT22;64029;48.244;9.188;2023-02-11T03:39:56;-6.30;74.00
75451;DHT22;64029;48.244;9.188;2023-02-11T03:42:28;-6.40;73.90
75451;DHT22;64029;48.244;9.188;2023-02-11T03:44:59;-6.40;73.90
75451;DHT22;64029;48.244;9.188;2023-02-11T03:47:31;-6.40;73.90
75451;DHT22;64029;48.244;9.188;2023-02-11T03:50:02;-6.40;74.10
75451;DHT22;64029;48.244;9.188;2023-02-11T03:52:30;-6.40;74.00
75451;DHT22;64029;48.244;9.188;2023-02-11T03:54:59;-6.40;74.30
75451;DHT22;64029;48.244;9.188;2023-02-11T03:57:26;-6.40;74.30
75451;DHT22;64029;48.244;9.188;2023-02-11T03:59:55;-6.40;74.40
75451;DHT22;64029;48.244;9.188;2023-02-11T04:02:25;-6.50;74.10
75451;DHT22;64029;48.244;9.188;2023-02-11T04:04:52;-6.40;74.30
75451;DHT22;64029;48.244;9.188;2023-02-11T04:07:20;-6.40;74.40
75451;DHT22;64029;48.244;9.188;2023-02-11T04:09:47;-6.40;74.40
75451;DHT22;64029;48.244;9.188;2023-02-11T04:12:14;-6.50;74.10
75451;DHT22;64029;48.244;9.188;2023-02-11T04:14:41;-6.40;74.50
75451;DHT22;64029;48.244;9.188;2023-02-11T04:17:08;-6.40;74.40
75451;DHT22;64029;48.244;9.188;2023-02-11T04:19:35;-6.40;74.40
75451;DHT22;64029;48.244;9.188;2023-02-11T04:22:02;-6.40;75.10
75451;DHT22;64029;48.244;9.188;2023-02-11T04:24:31;-6.40;74.10
75451;DHT22;64029;48.244;9.188;2023-02-11T04:26:58;-6.40;74.00
75451;DHT22;64029;48.244;9.188;2023-02-11T04:29:25;-6.40;73.90
75451;DHT22;64029;48.244;9.188;2023-02-11T04:31:53;-6.50;73.70
75451;DHT22;64029;48.244;9.188;2023-02-11T04:34:20;-6.50;73.80
75451;DHT22;64029;48.244;9.188;2023-02-11T04:36:47;-6.50;73.80
75451;DHT22;64029;48.244;9.188;2023-02-11T04:39:14;-6.50;73.90
75451;DHT22;64029;48.244;9.188;2023-02-11T04:41:42;-6.50;74.00
75451;DHT22;64029;48.244;9.188;2023-02-11T04:44:09;-6.50;74.00
75451;DHT22;64029;48.244;9.188;2023-02-11T04:46:36;-6.50;74.00
75451;DHT22;64029;48.244;9.188;2023-02-11T04:49:03;-6.50;74.10
75451;DHT22;64029;48.244;9.188;2023-02-11T04:51:30;-6.50;74.20
75451;DHT22;64029;48.244;9.188;2023-02-11T04:53:57;-6.50;74.40
75451;DHT22;64029;48.244;9.188;2023-02-11T04:56:23;-6.50;74.60
75451;DHT22;64029;48.244;9.188;2023-02-11T04:58:52;-6.60;74.50
75451;DHT22;64029;48.244;9.188;2023-02-11T05:01:18;-6.60;74.90
75451;DHT22;64029;48.244;9.188;2023-02-11T05:03:45;-6.60;74.80
75451;DHT22;64029;48.244;9.188;2023-02-11T05:06:12;-6.60;74.70
75451;DHT22;64029;48.244;9.188;2023-02-11T05:08:39;-6.60;74.70
75451;DHT22;64029;48.244;9.188;2023-02-11T05:11:07;-6.60;74.50
75451;DHT22;64029;48.244;9.188;2023-02-11T05:13:34;-6.60;74.40
75451;DHT22;64029;48.244;9.188;2023-02-11T05:16:03;-6.60;74.40
75451;DHT22;64029;48.244;9.188;2023-02-11T05:18:30;-6.60;74.40
75451;DHT22;64029;48.244;9.188;2023-02-11T05:20:57;-6.60;74.40
75451;DHT22;64029;48.244;9.188;2023-02-11T05:23:23;-6.60;74.30
75451;DHT22;64029;48.244;9.188;2023-02-11T05:25:50;-6.60;74.20
75451;DHT22;64029;48.244;9.188;2023-02-11T05:28:17;-6.60;75.20
75451;DHT22;64029;48.244;9.188;2023-02-11T05:30:44;-6.60;74.50
75451;DHT22;64029;48.244;9.188;2023-02-11T05:33:12;-6.70;74.70
75451;DHT22;64029;48.244;9.188;2023-02-11T05:35:39;-6.70;74.80
75451;DHT22;64029;48.244;9.188;2023-02-11T05:38:06;-6.70;74.80
75451;DHT22;64029;48.244;9.188;2023-02-11T05:40:32;-6.70;74.60
75451;DHT22;64029;48.244;9.188;2023-02-11T05:42:59;-6.70;74.40
75451;DHT22;64029;48.244;9.188;2023-02-11T05:45:26;-6.70;74.60
75451;DHT22;64029;48.244;9.188;2023-02-11T05:47:53;-6.70;74.70
75451;DHT22;64029;48.244;9.188;2023-02-11T05:50:22;-6.70;74.70
75451;DHT22;64029;48.244;9.188;2023-02-11T05:52:48;-6.70;74.50
75451;DHT22;64029;48.244;9.188;2023-02-11T05:55:15;-6.60;74.60
75451;DHT22;64029;48.244;9.188;2023-02-11T05:57:42;-6.60;74.90
75451;DHT22;64029;48.244;9.188;2023-02-11T06:00:10;-6.60;74.60
75451;DHT22;64029;48.244;9.188;2023-02-11T06:02:37;-6.60;74.70
75451;DHT22;64029;48.244;9.188;2023-02-11T06:05:04;-6.60;74.70
75451;DHT22;64029;48.244;9.188;2023-02-11T06:07:33;-6.50;75.00
75451;DHT22;64029;48.244;9.188;2023-02-11T06:09:59;-6.60;74.90
75451;DHT22;64029;48.244;9.188;2023-02-11T06:12:26;-6.60;74.90
75451;DHT22;64029;48.244;9.188;2023-02-11T06:14:53;-6.60;74.90
75451;DHT22;64029;48.244;9.188;2023-02-11T06:17:20;-6.60;74.80
75451;DHT22;64029;48.244;9.188;2023-02-11T06:19:47;-6.60;74.90
75451;DHT22;64029;48.244;9.188;2023-02-11T06:22:14;-6.60;74.80
75451;DHT22;64029;48.244;9.188;2023-02-11T06:24:42;-6.60;74.70
75451;DHT22;64029;48.244;9.188;2023-02-11T06:27:09;-6.60;74.70
75451;DHT22;64029;48.244;9.188;2023-02-11T06:29:36;-6.50;75.00
75451;DHT22;64029;48.244;9.188;2023-02-11T06:32:03;-6.50;74.90
75451;DHT22;64029;48.244;9.188;2023-02-11T06:34:30;-6.60;75.00
75451;DHT22;64029;48.244;9.188;2023-02-11T06:36:57;-6.60;74.80
75451;DHT22;64029;48.244;9.188;2023-02-11T06:39:23;-6.50;74.90
75451;DHT22;64029;48.244;9.188;2023-02-11T06:41:52;-6.50;75.10
75451;DHT22;64029;48.244;9.188;2023-02-11T06:44:18;-6.50;75.20
75451;DHT22;64029;48.244;9.188;2023-02-11T06:46:45;-6.50;75.00
75451;DHT22;64029;48.244;9.188;2023-02-11T06:49:12;-6.40;75.30
75451;DHT22;64029;48.244;9.188;2023-02-11T06:51:39;-6.40;75.20
75451;DHT22;64029;48.244;9.188;2023-02-11T06:54:06;-6.40;75.00
75451;DHT22;64029;48.244;9.188;2023-02-11T06:56:33;-6.40;75.20
75451;DHT22;64029;48.244;9.188;2023-02-11T06:59:02;-6.30;75.60
75451;DHT22;64029;48.244;9.188;2023-02-11T07:01:29;-6.30;75.30
75451;DHT22;64029;48.244;9.188;2023-02-11T07:03:56;-6.20;75.40
75451;DHT22;64029;48.244;9.188;2023-02-11T07:06:25;-6.10;76.40
75451;DHT22;64029;48.244;9.188;2023-02-11T07:08:52;-6.10;76.00
75451;DHT22;64029;48.244;9.188;2023-02-11T07:11:21;-6.10;75.60
75451;DHT22;64029;48.244;9.188;2023-02-11T07:13:49;-6.00;75.70
75451;DHT22;64029;48.244;9.188;2023-02-11T07:16:18;-6.00;75.60
75451;DHT22;64029;48.244;9.188;2023-02-11T07:18:46;-6.00;76.30
75451;DHT22;64029;48.244;9.188;2023-02-11T07:21:15;-5.90;76.40
75451;DHT22;64029;48.244;9.188;2023-02-11T07:23:42;-5.90;76.20
75451;DHT22;64029;48.244;9.188;2023-02-11T07:26:11;-5.80;76.20
75451;DHT22;64029;48.244;9.188;2023-02-11T07:28:39;-5.80;76.50
75451;DHT22;64029;48.244;9.188;2023-02-11T07:31:06;-5.80;76.40
75451;DHT22;64029;48.244;9.188;2023-02-11T07:33:36;-5.70;77.00
75451;DHT22;64029;48.244;9.188;2023-02-11T07:36:04;-5.70;76.80
75451;DHT22;64029;48.244;9.188;2023-02-11T07:38:32;-5.70;76.70
75451;DHT22;64029;48.244;9.188;2023-02-11T07:40:59;-5.60;77.70
75451;DHT22;64029;48.244;9.188;2023-02-11T07:43:26;-5.50;77.80
75451;DHT22;64029;48.244;9.188;2023-02-11T07:45:53;-5.50;77.30
75451;DHT22;64029;48.244;9.188;2023-02-11T07:48:20;-5.50;77.50
75451;DHT22;64029;48.244;9.188;2023-02-11T07:50:48;-5.40;77.40
75451;DHT22;64029;48.244;9.188;2023-02-11T07:53:16;-5.40;77.80
75451;DHT22;64029;48.244;9.188;2023-02-11T07:55:42;-5.30;77.60
75451;DHT22;64029;48.244;9.188;2023-02-11T07:58:09;-5.30;77.50
75451;DHT22;64029;48.244;9.188;2023-02-11T08:00:36;-5.30;77.60
75451;DHT22;64029;48.244;9.188;2023-02-11T08:03:03;-5.20;77.90
75451;DHT22;64029;48.244;9.188;2023-02-11T08:05:32;-5.20;78.00
75451;DHT22;64029;48.244;9.188;2023-02-11T08:08:00;-5.10;78.20
75451;DHT22;64029;48.244;9.188;2023-02-11T08:10:27;-5.10;78.10
75451;DHT22;64029;48.244;9.188;2023-02-11T08:12:54;-5.10;78.20
75451;DHT22;64029;48.244;9.188;2023-02-11T08:15:20;-5.00;78.10
75451;DHT22;64029;48.244;9.188;2023-02-11T08:17:47;-5.00;79.10
75451;DHT22;64029;48.244;9.188;2023-02-11T08:20:14;-5.00;78.10
75451;DHT22;64029;48.244;9.188;2023-02-11T08:22:41;-4.90;78.20
75451;DHT22;64029;48.244;9.188;2023-02-11T08:25:09;-4.90;78.10
75451;DHT22;64029;48.244;9.188;2023-02-11T08:27:36;-4.80;78.10
75451;DHT22;64029;48.244;9.188;2023-02-11T08:30:04;-4.80;78.30
75451;DHT22;64029;48.244;9.188;2023-02-11T08:32:33;-4.70;78.40
75451;DHT22;64029;48.244;9.188;2023-02-11T08:35:00;-4.60;79.00
75451;DHT22;64029;48.244;9.188;2023-02-11T08:37:27;-4.60;78.60
75451;DHT22;64029;48.244;9.188;2023-02-11T08:39:54;-4.60;78.90
75451;DHT22;64029;48.244;9.188;2023-02-11T08:42:22;-4.50;79.30
75451;DHT22;64029;48.244;9.188;2023-02-11T08:44:49;-4.50;78.60
75451;DHT22;64029;48.244;9.188;2023-02-11T08:47:15;-4.50;78.50
75451;DHT22;64029;48.244;9.188;2023-02-11T08:49:42;-4.50;78.90
75451;DHT22;64029;48.244;9.188;2023-02-11T08:52:09;-4.40;79.40
75451;DHT22;64029;48.244;9.188;2023-02-11T08:54:36;-4.30;79.10
75451;DHT22;64029;48.244;9.188;2023-02-11T08:57:03;-4.30;79.20
75451;DHT22;64029;48.244;9.188;2023-02-11T08:59:31;-4.20;79.10
75451;DHT22;64029;48.244;9.188;2023-02-11T09:01:59;-4.10;79.70
75451;DHT22;64029;48.244;9.188;2023-02-11T09:04:25;-4.00;80.40
75451;DHT22;64029;48.244;9.188;2023-02-11T09:06:52;-4.00;80.20
75451;DHT22;64029;48.244;9.188;2023-02-11T09:09:19;-3.90;81.20
75451;DHT22;64029;48.244;9.188;2023-02-11T09:11:46;-3.80;80.80
75451;DHT22;64029;48.244;9.188;2023-02-11T09:14:16;-3.80;81.00
75451;DHT22;64029;48.244;9.188;2023-02-11T09:16:45;-3.70;81.80
75451;DHT22;64029;48.244;9.188;2023-02-11T09:19:12;-3.50;83.40
75451;DHT22;64029;48.244;9.188;2023-02-11T09:21:39;-3.40;83.20
75451;DHT22;64029;48.244;9.188;2023-02-11T09:24:06;-3.20;84.00
75451;DHT22;64029;48.244;9.188;2023-02-11T09:26:34;-3.20;83.90
75451;DHT22;64029;48.244;9.188;2023-02-11T09:29:02;-3.00;84.90
75451;DHT22;64029;48.244;9.188;2023-02-11T09:31:31;-2.90;84.50
75451;DHT22;64029;48.244;9.188;2023-02-11T09:34:01;-3.00;83.60
75451;DHT22;64029;48.244;9.188;2023-02-11T09:36:30;-2.80;84.90
75451;DHT22;64029;48.244;9.188;2023-02-11T09:39:00;-2.60;86.20
75451;DHT22;64029;48.244;9.188;2023-02-11T09:44:32;-2.40;84.70
75451;DHT22;64029;48.244;9.188;2023-02-11T09:47:00;-2.40;85.00
75451;DHT22;64029;48.244;9.188;2023-02-11T09:49:34;-2.30;85.10
75451;DHT22;64029;48.244;9.188;2023-02-11T09:52:07;-2.20;85.60
75451;DHT22;64029;48.244;9.188;2023-02-11T09:54:38;-2.10;86.20
75451;DHT22;64029;48.244;9.188;2023-02-11T09:57:08;-1.80;86.50
75451;DHT22;64029;48.244;9.188;2023-02-11T09:59:35;-1.80;85.50
75451;DHT22;64029;48.244;9.188;2023-02-11T10:02:05;-1.70;85.70
75451;DHT22;64029;48.244;9.188;2023-02-11T10:04:47;-1.70;85.30
75451;DHT22;64029;48.244;9.188;2023-02-11T10:07:24;-1.50;85.60
75451;DHT22;64029;48.244;9.188;2023-02-11T10:10:03;-1.50;84.90
75451;DHT22;64029;48.244;9.188;2023-02-11T10:12:48;-1.40;84.80
75451;DHT22;64029;48.244;9.188;2023-02-11T10:15:24;-1.40;85.80
75451;DHT22;64029;48.244;9.188;2023-02-11T10:18:05;-1.20;86.70
75451;DHT22;64029;48.244;9.188;2023-02-11T10:20:45;-1.10;86.00
75451;DHT22;64029;48.244;9.188;2023-02-11T10:23:17;-1.10;86.60
75451;DHT22;64029;48.244;9.188;2023-02-11T10:25:47;-0.80;86.20
75451;DHT22;64029;48.244;9.188;2023-02-11T10:28:18;-0.60;86.60
75451;DHT22;64029;48.244;9.188;2023-02-11T10:30:54;-0.60;86.40
75451;DHT22;64029;48.244;9.188;2023-02-11T10:33:25;-0.50;86.00
75451;DHT22;64029;48.244;9.188;2023-02-11T10:35:54;-0.40;85.90
75451;DHT22;64029;48.244;9.188;2023-02-11T10:38:21;-0.30;85.50
75451;DHT22;64029;48.244;9.188;2023-02-11T10:40:48;0.00;86.20
75451;DHT22;64029;48.244;9.188;2023-02-11T10:43:16;0.50;86.10
75451;DHT22;64029;48.244;9.188;2023-02-11T10:45:48;0.50;85.00
75451;DHT22;64029;48.244;9.188;2023-02-11T10:48:35;0.60;84.60
75451;DHT22;64029;48.244;9.188;2023-02-11T10:51:13;0.50;83.80
75451;DHT22;64029;48.244;9.188;2023-02-11T10:53:41;0.40;84.70
75451;DHT22;64029;48.244;9.188;2023-02-11T10:56:10;0.50;85.00
75451;DHT22;64029;48.244;9.188;2023-02-11T10:58:40;0.60;85.30
75451;DHT22;64029;48.244;9.188;2023-02-11T11:01:09;0.70;85.10
75451;DHT22;64029;48.244;9.188;2023-02-11T11:03:38;1.00;84.50
75451;DHT22;64029;48.244;9.188;2023-02-11T11:06:12;1.20;84.00
75451;DHT22;64029;48.244;9.188;2023-02-11T11:08:41;1.60;83.40
75451;DHT22;64029;48.244;9.188;2023-02-11T11:11:10;1.70;82.90
75451;DHT22;64029;48.244;9.188;2023-02-11T11:13:39;1.70;83.00
75451;DHT22;64029;48.244;9.188;2023-02-11T11:16:16;1.70;82.80
75451;DHT22;64029;48.244;9.188;2023-02-11T11:18:45;1.70;82.80
75451;DHT22;64029;48.244;9.188;2023-02-11T11:21:17;2.00;82.40
75451;DHT22;64029;48.244;9.188;2023-02-11T11:23:54;2.20;81.50
75451;DHT22;64029;48.244;9.188;2023-02-11T11:26:21;2.30;81.00
75451;DHT22;64029;48.244;9.188;2023-02-11T11:28:55;2.50;80.40
75451;DHT22;64029;48.244;9.188;2023-02-11T11:31:24;2.50;80.20
75451;DHT22;64029;48.244;9.188;2023-02-11T11:33:54;2.50;79.70
75451;DHT22;64029;48.244;9.188;2023-02-11T11:36:31;2.50;79.60
75451;DHT22;64029;48.244;9.188;2023-02-11T11:39:02;2.30;80.80
75451;DHT22;64029;48.244;9.188;2023-02-11T11:41:31;2.40;80.50
75451;DHT22;64029;48.244;9.188;2023-02-11T11:44:01;2.30;81.50
75451;DHT22;64029;48.244;9.188;2023-02-11T11:46:32;2.30;82.20
75451;DHT22;64029;48.244;9.188;2023-02-11T11:49:19;2.40;83.00
75451;DHT22;64029;48.244;9.188;2023-02-11T11:51:55;2.50;82.30
75451;DHT22;64029;48.244;9.188;2023-02-11T11:54:24;2.60;83.20
75451;DHT22;64029;48.244;9.188;2023-02-11T11:56:57;2.60;83.00
75451;DHT22;64029;48.244;9.188;2023-02-11T11:59:26;2.70;82.70
75451;DHT22;64029;48.244;9.188;2023-02-11T12:02:18;2.80;82.50
75451;DHT22;64029;48.244;9.188;2023-02-11T12:04:59;2.90;82.00
75451;DHT22;64029;48.244;9.188;2023-02-11T12:07:39;3.00;81.60
75451;DHT22;64029;48.244;9.188;2023-02-11T12:10:30;3.10;81.30
75451;DHT22;64029;48.244;9.188;2023-02-11T12:13:07;3.10;80.60
75451;DHT22;64029;48.244;9.188;2023-02-11T12:15:42;3.10;80.90
75451;DHT22;64029;48.244;9.188;2023-02-11T12:18:21;3.30;80.00
75451;DHT22;64029;48.244;9.188;2023-02-11T12:21:08;3.20;81.10
75451;DHT22;64029;48.244;9.188;2023-02-11T12:23:47;3.40;80.10
75451;DHT22;64029;48.244;9.188;2023-02-11T12:26:20;3.40;80.40
75451;DHT22;64029;48.244;9.188;2023-02-11T12:28:59;3.60;80.20
75451;DHT22;64029;48.244;9.188;2023-02-11T12:31:47;3.80;79.70
75451;DHT22;64029;48.244;9.188;2023-02-11T12:37:18;3.80;79.30
75451;DHT22;64029;48.244;9.188;2023-02-11T12:39:59;4.10;78.00
75451;DHT22;64029;48.244;9.188;2023-02-11T12:42:45;3.90;79.30
75451;DHT22;64029;48.244;9.188;2023-02-11T12:45:57;4.40;77.50
75451;DHT22;64029;48.244;9.188;2023-02-11T12:48:55;4.20;78.80
75451;DHT22;64029;48.244;9.188;2023-02-11T12:51:35;4.60;76.90
75451;DHT22;64029;48.244;9.188;2023-02-11T12:54:25;4.60;77.20
75451;DHT22;64029;48.244;9.188;2023-02-11T12:56:58;4.50;78.10
75451;DHT22;64029;48.244;9.188;2023-02-11T12:59:37;4.40;78.80
75451;DHT22;64029;48.244;9.188;2023-02-11T13:02:17;4.60;77.80
75451;DHT22;64029;48.244;9.188;2023-02-11T13:04:48;4.60;77.80
75451;DHT22;64029;48.244;9.188;2023-02-11T13:07:22;4.70;77.40
75451;DHT22;64029;48.244;9.188;2023-02-11T13:09:55;4.70;78.20
75451;DHT22;64029;48.244;9.188;2023-02-11T13:12:26;4.70;78.90
75451;DHT22;64029;48.244;9.188;2023-02-11T13:15:14;4.70;79.50
75451;DHT22;64029;48.244;9.188;2023-02-11T13:17:47;4.70;80.10
75451;DHT22;64029;48.244;9.188;2023-02-11T13:20:31;4.70;79.80
75451;DHT22;64029;48.244;9.188;2023-02-11T13:23:06;4.80;79.80
75451;DHT22;64029;48.244;9.188;2023-02-11T13:25:42;4.90;80.00
75451;DHT22;64029;48.244;9.188;2023-02-11T13:28:24;4.90;79.80
75451;DHT22;64029;48.244;9.188;2023-02-11T13:30:53;5.00;78.80
75451;DHT22;64029;48.244;9.188;2023-02-11T13:33:31;5.00;79.80
75451;DHT22;64029;48.244;9.188;2023-02-11T13:36:20;5.10;78.80
75451;DHT22;64029;48.244;9.188;2023-02-11T13:38:57;5.20;76.70
75451;DHT22;64029;48.244;9.188;2023-02-11T13:41:28;5.20;77.10
75451;DHT22;64029;48.244;9.188;2023-02-11T13:44:25;5.20;77.10
75451;DHT22;64029;48.244;9.188;2023-02-11T13:46:57;5.30;76.50
75451;DHT22;64029;48.244;9.188;2023-02-11T13:49:32;5.30;76.80
75451;DHT22;64029;48.244;9.188;2023-02-11T13:52:03;5.40;74.90
75451;DHT22;64029;48.244;9.188;2023-02-11T13:54:33;5.40;75.90
75451;DHT22;64029;48.244;9.188;2023-02-11T13:57:33;5.40;76.60
75451;DHT22;64029;48.244;9.188;2023-02-11T14:03:25;5.70;72.00
75451;DHT22;64029;48.244;9.188;2023-02-11T14:06:13;5.70;68.60
75451;DHT22;64029;48.244;9.188;2023-02-11T14:11:49;5.70;71.80
75451;DHT22;64029;48.244;9.188;2023-02-11T14:14:19;5.60;75.20
75451;DHT22;64029;48.244;9.188;2023-02-11T14:17:17;5.50;76.80
75451;DHT22;64029;48.244;9.188;2023-02-11T14:19:46;5.50;77.50
75451;DHT22;64029;48.244;9.188;2023-02-11T14:22:17;5.50;78.40
75451;DHT22;64029;48.244;9.188;2023-02-11T14:24:49;5.50;77.80
75451;DHT22;64029;48.244;9.188;2023-02-11T14:27:25;5.50;78.00
75451;DHT22;64029;48.244;9.188;2023-02-11T14:30:09;5.50;78.30
75451;DHT22;64029;48.244;9.188;2023-02-11T14:32:52;5.50;79.20
75451;DHT22;64029;48.244;9.188;2023-02-11T14:35:28;5.50;79.60
75451;DHT22;64029;48.244;9.188;2023-02-11T14:38:02;5.50;79.90
75451;DHT22;64029;48.244;9.188;2023-02-11T14:40:32;5.40;80.00
75451;DHT22;64029;48.244;9.188;2023-02-11T14:43:05;5.40;80.30
75451;DHT22;64029;48.244;9.188;2023-02-11T14:45:36;5.40;80.70
75451;DHT22;64029;48.244;9.188;2023-02-11T14:48:07;5.40;80.80
75451;DHT22;64029;48.244;9.188;2023-02-11T14:50:43;5.40;80.20
75451;DHT22;64029;48.244;9.188;2023-02-11T14:53:14;5.40;80.30
75451;DHT22;64029;48.244;9.188;2023-02-11T14:55:44;5.30;79.30
75451;DHT22;64029;48.244;9.188;2023-02-11T14:58:15;5.40;80.50
75451;DHT22;64029;48.244;9.188;2023-02-11T15:00:53;5.40;81.00
75451;DHT22;64029;48.244;9.188;2023-02-11T15:03:33;5.30;80.90
75451;DHT22;64029;48.244;9.188;2023-02-11T15:06:03;5.30;81.10
75451;DHT22;64029;48.244;9.188;2023-02-11T15:08:33;5.30;81.20
75451;DHT22;64029;48.244;9.188;2023-02-11T15:11:02;5.30;81.10
75451;DHT22;64029;48.244;9.188;2023-02-11T15:13:34;5.30;81.20
75451;DHT22;64029;48.244;9.188;2023-02-11T15:16:05;5.20;81.10
75451;DHT22;64029;48.244;9.188;2023-02-11T15:18:38;5.20;80.50
75451;DHT22;64029;48.244;9.188;2023-02-11T15:21:06;5.20;81.30
75451;DHT22;64029;48.244;9.188;2023-02-11T15:23:33;5.10;81.30
75451;DHT22;64029;48.244;9.188;2023-02-11T15:26:01;5.10;81.30
75451;DHT22;64029;48.244;9.188;2023-02-11T15:28:32;5.10;80.90
75451;DHT22;64029;48.244;9.188;2023-02-11T15:31:01;5.10;81.10
75451;DHT22;64029;48.244;9.188;2023-02-11T15:33:29;5.10;81.20
75451;DHT22;64029;48.244;9.188;2023-02-11T15:35:58;5.10;81.50
75451;DHT22;64029;48.244;9.188;2023-02-11T15:38:25;5.00;81.40
75451;DHT22;64029;48.244;9.188;2023-02-11T15:40:56;5.00;81.40
75451;DHT22;64029;48.244;9.188;2023-02-11T15:43:23;5.00;81.30
75451;DHT22;64029;48.244;9.188;2023-02-11T15:45:57;4.90;81.10
75451;DHT22;64029;48.244;9.188;2023-02-11T15:48:33;4.90;80.40
75451;DHT22;64029;48.244;9.188;2023-02-11T15:51:07;4.80;80.40
75451;DHT22;64029;48.244;9.188;2023-02-11T15:53:38;4.80;80.60
75451;DHT22;64029;48.244;9.188;2023-02-11T15:56:12;4.70;80.00
75451;DHT22;64029;48.244;9.188;2023-02-11T15:58:44;4.70;80.00
75451;DHT22;64029;48.244;9.188;2023-02-11T16:01:12;4.70;80.40
75451;DHT22;64029;48.244;9.188;2023-02-11T16:03:40;4.60;79.70
75451;DHT22;64029;48.244;9.188;2023-02-11T16:06:23;4.60;80.00
75451;DHT22;64029;48.244;9.188;2023-02-11T16:09:01;4.50;79.40
75451;DHT22;64029;48.244;9.188;2023-02-11T16:11:30;4.40;78.70
75451;DHT22;64029;48.244;9.188;2023-02-11T16:13:58;4.40;79.40
75451;DHT22;64029;48.244;9.188;2023-02-11T16:16:28;4.40;79.00